sensor_id;sensor_type;location;lat;lon;timestamp;noise_LAeq;noise_LA_min;noise_LA_max;noise_LA01;noise_LA95
42701;Laerm;28316;49.504;8.526;2023-12-28T00:01:20;39.31;37.32;41.06;;
42701;Laerm;28316;49.504;8.526;2023-12-28T00:03:45;39.35;36.69;41.46;;
42701;Laerm;28316;49.504;8.526;2023-12-28T00:06:11;39.39;37.12;41.30;;
42701;Laerm;28316;49.504;8.526;2023-12-28T00:08:37;39.43;37.32;40.98;;
42701;Laerm;28316;49.504;8.526;2023-12-28T00:11:03;39.60;37.53;41.22;;
42701;Laerm;28316;49.504;8.526;2023-12-28T00:13:28;39.83;37.52;41.14;;
42701;Laerm;28316;49.504;8.526;2023-12-28T00:15:56;40.10;38.52;41.53;;
42701;Laerm;28316;49.504;8.526;2023-12-28T00:18:22;40.21;38.37;41.61;;
42701;Laerm;28316;49.504;8.526;2023-12-28T00:20:48;40.28;38.67;41.68;;
42701;Laerm;28316;49.504;8.526;2023-12-28T00:23:14;40.42;38.81;41.68;;
42701;Laerm;28316;49.504;8.526;2023-12-28T00:25:39;40.48;38.95;41.68;;
42701;Laerm;28316;49.504;8.526;2023-12-28T00:28:05;40.31;38.81;41.68;;
42701;Laerm;28316;49.504;8.526;2023-12-28T00:30:31;40.15;38.37;41.68;;
42701;Laerm;28316;49.504;8.526;2023-12-28T00:32:58;40.12;38.37;41.46;;
42701;Laerm;28316;49.504;8.526;2023-12-28T00:35:24;40.03;38.37;41.53;;
42701;Laerm;28316;49.504;8.526;2023-12-28T00:37:49;40.05;38.37;41.61;;
42701;Laerm;28316;49.504;8.526;2023-12-28T00:40:15;40.11;38.05;41.46;;
42701;Laerm;28316;49.504;8.526;2023-12-28T00:42:41;40.20;38.67;41.89;;
42701;Laerm;28316;49.504;8.526;2023-12-28T00:45:09;40.26;37.88;41.82;;
42701;Laerm;28316;49.504;8.526;2023-12-28T00:47:35;40.35;38.67;41.89;;
42701;Laerm;28316;49.504;8.526;2023-12-28T00:50:01;40.48;38.81;41.82;;
42701;Laerm;28316;49.504;8.526;2023-12-28T00:52:26;40.64;39.08;42.03;;
42701;Laerm;28316;49.504;8.526;2023-12-28T00:54:52;40.81;39.34;42.13;;
42701;Laerm;28316;49.504;8.526;2023-12-28T00:57:18;40.95;39.21;42.09;;
42701;Laerm;28316;49.504;8.526;2023-12-28T00:59:44;41.19;39.70;43.77;;
42701;Laerm;28316;49.504;8.526;2023-12-28T01:02:10;41.30;39.92;42.53;;
42701;Laerm;28316;49.504;8.526;2023-12-28T01:04:36;41.39;40.03;42.59;;
42701;Laerm;28316;49.504;8.526;2023-12-28T01:07:02;41.43;39.81;42.59;;
42701;Laerm;28316;49.504;8.526;2023-12-28T01:09:30;41.42;40.03;42.71;;
42701;Laerm;28316;49.504;8.526;2023-12-28T01:11:58;41.42;39.70;42.47;;
42701;Laerm;28316;49.504;8.526;2023-12-28T01:14:24;41.41;40.03;42.76;;
42701;Laerm;28316;49.504;8.526;2023-12-28T01:16:50;41.41;40.13;42.82;;
42701;Laerm;28316;49.504;8.526;2023-12-28T01:19:16;41.40;40.13;42.53;;
42701;Laerm;28316;49.504;8.526;2023-12-28T01:21:42;41.42;39.92;42.59;;
42701;Laerm;28316;49.504;8.526;2023-12-28T01:24:07;41.40;39.70;42.65;;
42701;Laerm;28316;49.504;8.526;2023-12-28T01:26:33;41.39;39.70;42.69;;
42701;Laerm;28316;49.504;8.526;2023-12-28T01:29:00;41.33;39.92;42.53;;
42701;Laerm;28316;49.504;8.526;2023-12-28T01:31:29;41.27;39.92;42.42;;
42701;Laerm;28316;49.504;8.526;2023-12-28T01:33:55;41.23;39.34;42.65;;
42701;Laerm;28316;49.504;8.526;2023-12-28T01:36:22;41.19;39.46;42.59;;
42701;Laerm;28316;49.504;8.526;2023-12-28T01:38:48;41.13;39.81;42.29;;
42701;Laerm;28316;49.504;8.526;2023-12-28T01:41:14;41.09;39.70;42.35;;
42701;Laerm;28316;49.504;8.526;2023-12-28T01:43:42;41.05;39.58;42.35;;
42701;Laerm;28316;49.504;8.526;2023-12-28T01:46:15;41.00;39.46;42.16;;
42701;Laerm;28316;49.504;8.526;2023-12-28T01:48:44;40.98;39.58;42.16;;
42701;Laerm;28316;49.504;8.526;2023-12-28T01:51:12;41.00;39.34;42.22;;
42701;Laerm;28316;49.504;8.526;2023-12-28T01:53:39;41.06;39.46;42.35;;
42701;Laerm;28316;49.504;8.526;2023-12-28T01:56:06;41.08;39.58;42.41;;
42701;Laerm;28316;49.504;8.526;2023-12-28T01:58:33;41.16;39.81;42.35;;
42701;Laerm;28316;49.504;8.526;2023-12-28T02:01:01;41.43;39.81;42.71;;
42701;Laerm;28316;49.504;8.526;2023-12-28T02:03:27;41.58;40.03;42.98;;
42701;Laerm;28316;49.504;8.526;2023-12-28T02:05:54;41.69;40.43;42.93;;
42701;Laerm;28316;49.504;8.526;2023-12-28T02:08:20;41.80;40.33;46.28;;
42701;Laerm;28316;49.504;8.526;2023-12-28T02:10:46;41.80;40.23;48.12;;
42701;Laerm;28316;49.504;8.526;2023-12-28T02:13:11;41.71;40.13;43.58;;
42701;Laerm;28316;49.504;8.526;2023-12-28T02:15:37;41.74;40.13;45.39;;
42701;Laerm;28316;49.504;8.526;2023-12-28T02:18:13;41.77;40.03;50.29;;
42701;Laerm;28316;49.504;8.526;2023-12-28T02:20:43;41.72;40.03;44.97;;
42701;Laerm;28316;49.504;8.526;2023-12-28T02:23:10;41.83;39.92;52.80;;
42701;Laerm;28316;49.504;8.526;2023-12-28T02:25:36;41.74;39.70;51.04;;
42701;Laerm;28316;49.504;8.526;2023-12-28T02:28:02;41.74;40.03;50.05;;
42701;Laerm;28316;49.504;8.526;2023-12-28T02:30:28;41.54;39.70;44.43;;
42701;Laerm;28316;49.504;8.526;2023-12-28T02:33:22;41.52;39.70;43.44;;
42701;Laerm;28316;49.504;8.526;2023-12-28T02:36:04;41.61;39.81;51.01;;
42701;Laerm;28316;49.504;8.526;2023-12-28T02:38:33;41.70;39.81;53.34;;
42701;Laerm;28316;49.504;8.526;2023-12-28T02:41:01;41.57;39.92;44.80;;
42701;Laerm;28316;49.504;8.526;2023-12-28T02:43:28;41.50;39.58;44.39;;
42701;Laerm;28316;49.504;8.526;2023-12-28T02:45:54;41.47;39.70;43.86;;
42701;Laerm;28316;49.504;8.526;2023-12-28T02:48:20;41.53;39.81;50.56;;
42701;Laerm;28316;49.504;8.526;2023-12-28T02:50:46;41.45;39.92;45.63;;
42701;Laerm;28316;49.504;8.526;2023-12-28T02:53:12;41.50;39.34;44.89;;
42701;Laerm;28316;49.504;8.526;2023-12-28T02:55:38;41.49;39.70;47.12;;
42701;Laerm;28316;49.504;8.526;2023-12-28T02:58:04;41.57;39.92;52.60;;
42701;Laerm;28316;49.504;8.526;2023-12-28T03:00:32;41.42;39.70;44.73;;
42701;Laerm;28316;49.504;8.526;2023-12-28T03:02:58;41.45;39.70;46.82;;
42701;Laerm;28316;49.504;8.526;2023-12-28T03:05:24;41.40;39.58;44.54;;
42701;Laerm;28316;49.504;8.526;2023-12-28T03:07:50;41.40;39.81;43.58;;
42701;Laerm;28316;49.504;8.526;2023-12-28T03:10:16;41.40;39.58;46.18;;
42701;Laerm;28316;49.504;8.526;2023-12-28T03:12:41;41.37;39.58;42.76;;
42701;Laerm;28316;49.504;8.526;2023-12-28T03:15:07;41.36;39.58;42.71;;
42701;Laerm;28316;49.504;8.526;2023-12-28T03:17:33;41.36;39.58;42.65;;
42701;Laerm;28316;49.504;8.526;2023-12-28T03:19:59;41.35;39.58;43.09;;
42701;Laerm;28316;49.504;8.526;2023-12-28T03:22:25;41.44;39.58;45.83;;
42701;Laerm;28316;49.504;8.526;2023-12-28T03:24:52;41.40;39.34;45.89;;
42701;Laerm;28316;49.504;8.526;2023-12-28T03:27:17;41.39;39.70;43.93;;
42701;Laerm;28316;49.504;8.526;2023-12-28T03:29:43;41.37;39.58;42.93;;
42701;Laerm;28316;49.504;8.526;2023-12-28T03:32:09;41.41;39.70;44.43;;
42701;Laerm;28316;49.504;8.526;2023-12-28T03:34:35;41.39;39.46;43.39;;
42701;Laerm;28316;49.504;8.526;2023-12-28T03:37:01;41.43;39.70;48.10;;
42701;Laerm;28316;49.504;8.526;2023-12-28T03:39:27;41.49;39.81;45.54;;
42701;Laerm;28316;49.504;8.526;2023-12-28T03:41:53;41.39;39.46;42.71;;
42701;Laerm;28316;49.504;8.526;2023-12-28T03:44:20;42.80;39.68;61.59;;
42701;Laerm;28316;49.504;8.526;2023-12-28T03:46:51;42.49;39.99;58.31;;
42701;Laerm;28316;49.504;8.526;2023-12-28T03:49:20;43.23;39.92;60.11;;
42701;Laerm;28316;49.504;8.526;2023-12-28T03:51:49;41.67;39.92;50.06;;
42701;Laerm;28316;49.504;8.526;2023-12-28T03:54:19;41.69;39.81;47.52;;
42701;Laerm;28316;49.504;8.526;2023-12-28T03:56:46;41.96;40.13;50.78;;
42701;Laerm;28316;49.504;8.526;2023-12-28T03:59:13;41.61;40.13;43.54;;
42701;Laerm;28316;49.504;8.526;2023-12-28T04:01:40;41.63;40.13;45.97;;
42701;Laerm;28316;49.504;8.526;2023-12-28T04:04:06;41.60;40.03;42.93;;
42701;Laerm;28316;49.504;8.526;2023-12-28T04:06:32;41.63;40.18;43.54;;
42701;Laerm;28316;49.504;8.526;2023-12-28T04:08:57;41.65;40.13;45.51;;
42701;Laerm;28316;49.504;8.526;2023-12-28T04:11:23;41.61;40.18;42.82;;
42701;Laerm;28316;49.504;8.526;2023-12-28T04:13:49;41.61;40.23;42.93;;
42701;Laerm;28316;49.504;8.526;2023-12-28T04:16:15;41.60;40.13;43.34;;
42701;Laerm;28316;49.504;8.526;2023-12-28T04:18:42;41.59;40.03;43.04;;
42701;Laerm;28316;49.504;8.526;2023-12-28T04:21:12;41.58;40.13;43.09;;
42701;Laerm;28316;49.504;8.526;2023-12-28T04:23:39;41.58;40.33;42.98;;
42701;Laerm;28316;49.504;8.526;2023-12-28T04:26:05;41.72;40.03;47.26;;
42701;Laerm;28316;49.504;8.526;2023-12-28T04:28:31;41.58;39.89;45.57;;
42701;Laerm;28316;49.504;8.526;2023-12-28T04:30:57;41.67;40.13;50.28;;
42701;Laerm;28316;49.504;8.526;2023-12-28T04:33:22;41.61;39.81;47.26;;
42701;Laerm;28316;49.504;8.526;2023-12-28T04:35:48;41.46;39.92;44.76;;
42701;Laerm;28316;49.504;8.526;2023-12-28T04:38:14;41.41;40.03;42.65;;
42701;Laerm;28316;49.504;8.526;2023-12-28T04:40:40;41.41;40.13;43.24;;
42701;Laerm;28316;49.504;8.526;2023-12-28T04:43:07;41.43;40.03;43.34;;
42701;Laerm;28316;49.504;8.526;2023-12-28T04:45:32;41.44;40.03;42.65;;
42701;Laerm;28316;49.504;8.526;2023-12-28T04:47:59;41.49;39.70;44.54;;
42701;Laerm;28316;49.504;8.526;2023-12-28T04:50:24;41.52;40.03;46.57;;
42701;Laerm;28316;49.504;8.526;2023-12-28T04:52:50;41.44;39.92;43.24;;
42701;Laerm;28316;49.504;8.526;2023-12-28T04:55:16;41.35;39.92;42.53;;
42701;Laerm;28316;49.504;8.526;2023-12-28T04:57:42;41.27;39.70;42.65;;
42701;Laerm;28316;49.504;8.526;2023-12-28T05:00:08;41.21;39.81;42.35;;
42701;Laerm;28316;49.504;8.526;2023-12-28T05:02:34;41.14;39.70;42.59;;
42701;Laerm;28316;49.504;8.526;2023-12-28T05:05:00;41.09;39.46;42.88;;
42701;Laerm;28316;49.504;8.526;2023-12-28T05:07:26;40.98;39.46;42.35;;
42701;Laerm;28316;49.504;8.526;2023-12-28T05:09:52;40.76;39.34;43.19;;
42701;Laerm;28316;49.504;8.526;2023-12-28T05:12:17;40.60;38.95;42.22;;
42701;Laerm;28316;49.504;8.526;2023-12-28T05:14:43;40.48;38.81;41.68;;
42701;Laerm;28316;49.504;8.526;2023-12-28T05:17:09;40.40;38.67;42.03;;
42701;Laerm;28316;49.504;8.526;2023-12-28T05:19:35;40.39;38.67;46.40;;
42701;Laerm;28316;49.504;8.526;2023-12-28T05:22:00;40.20;38.52;41.68;;
42701;Laerm;28316;49.504;8.526;2023-12-28T05:24:29;40.13;38.52;41.53;;
42701;Laerm;28316;49.504;8.526;2023-12-28T05:26:55;40.10;38.37;42.09;;
42701;Laerm;28316;49.504;8.526;2023-12-28T05:29:21;40.02;37.88;41.61;;
42701;Laerm;28316;49.504;8.526;2023-12-28T05:31:47;39.97;38.05;41.75;;
42701;Laerm;28316;49.504;8.526;2023-12-28T05:34:12;39.87;38.05;41.46;;
42701;Laerm;28316;49.504;8.526;2023-12-28T05:36:38;39.68;37.52;41.22;;
42701;Laerm;28316;49.504;8.526;2023-12-28T05:39:07;39.54;37.32;41.48;;
42701;Laerm;28316;49.504;8.526;2023-12-28T05:41:35;39.44;37.52;41.22;;
42701;Laerm;28316;49.504;8.526;2023-12-28T05:44:01;39.34;36.91;40.80;;
42701;Laerm;28316;49.504;8.526;2023-12-28T05:46:26;38.81;36.20;40.71;;
42701;Laerm;28316;49.504;8.526;2023-12-28T05:48:52;38.50;35.66;40.43;;
42701;Laerm;28316;49.504;8.526;2023-12-28T05:51:18;38.35;35.94;40.71;;
42701;Laerm;28316;49.504;8.526;2023-12-28T05:53:46;38.45;35.66;40.43;;
42701;Laerm;28316;49.504;8.526;2023-12-28T05:56:12;38.49;35.66;40.53;;
42701;Laerm;28316;49.504;8.526;2023-12-28T05:58:38;38.26;35.04;40.23;;
42701;Laerm;28316;49.504;8.526;2023-12-28T06:01:05;38.22;35.36;40.53;;
42701;Laerm;28316;49.504;8.526;2023-12-28T06:03:31;38.25;35.66;40.62;;
42701;Laerm;28316;49.504;8.526;2023-12-28T06:05:57;38.24;35.66;40.33;;
42701;Laerm;28316;49.504;8.526;2023-12-28T06:08:23;38.27;35.36;40.43;;
42701;Laerm;28316;49.504;8.526;2023-12-28T06:10:48;38.25;35.36;41.06;;
42701;Laerm;28316;49.504;8.526;2023-12-28T06:13:14;38.25;35.66;40.43;;
42701;Laerm;28316;49.504;8.526;2023-12-28T06:15:40;38.24;35.36;41.06;;
42701;Laerm;28316;49.504;8.526;2023-12-28T06:18:06;38.35;35.59;40.53;;
42701;Laerm;28316;49.504;8.526;2023-12-28T06:20:32;38.41;35.66;40.53;;
42701;Laerm;28316;49.504;8.526;2023-12-28T06:22:58;38.50;35.94;40.88;;
42701;Laerm;28316;49.504;8.526;2023-12-28T06:25:23;38.56;35.94;40.62;;
42701;Laerm;28316;49.504;8.526;2023-12-28T06:27:49;38.62;36.20;40.80;;
42701;Laerm;28316;49.504;8.526;2023-12-28T06:30:15;38.69;36.45;41.30;;
42701;Laerm;28316;49.504;8.526;2023-12-28T06:32:41;38.73;35.94;40.80;;
42701;Laerm;28316;49.504;8.526;2023-12-28T06:35:07;38.80;36.45;40.62;;
42701;Laerm;28316;49.504;8.526;2023-12-28T06:37:33;38.83;36.20;40.80;;
42701;Laerm;28316;49.504;8.526;2023-12-28T06:39:59;38.85;36.20;41.22;;
42701;Laerm;28316;49.504;8.526;2023-12-28T06:42:24;38.84;35.94;40.89;;
42701;Laerm;28316;49.504;8.526;2023-12-28T06:44:50;38.85;36.69;40.80;;
42701;Laerm;28316;49.504;8.526;2023-12-28T06:47:16;38.85;36.45;40.80;;
42701;Laerm;28316;49.504;8.526;2023-12-28T06:49:41;38.85;36.45;40.80;;
42701;Laerm;28316;49.504;8.526;2023-12-28T06:52:07;38.89;36.45;40.71;;
42701;Laerm;28316;49.504;8.526;2023-12-28T06:54:33;38.88;36.20;40.80;;
42701;Laerm;28316;49.504;8.526;2023-12-28T06:56:59;38.87;35.94;40.62;;
42701;Laerm;28316;49.504;8.526;2023-12-28T06:59:25;38.84;36.20;40.71;;
42701;Laerm;28316;49.504;8.526;2023-12-28T07:01:50;38.81;36.45;40.71;;
42701;Laerm;28316;49.504;8.526;2023-12-28T07:04:16;38.78;36.69;40.89;;
42701;Laerm;28316;49.504;8.526;2023-12-28T07:06:42;38.75;36.20;40.89;;
42701;Laerm;28316;49.504;8.526;2023-12-28T07:09:08;38.69;35.94;40.80;;
42701;Laerm;28316;49.504;8.526;2023-12-28T07:11:34;38.67;36.10;40.62;;
42701;Laerm;28316;49.504;8.526;2023-12-28T07:14:00;38.65;36.20;40.43;;
42701;Laerm;28316;49.504;8.526;2023-12-28T07:16:25;38.61;35.94;40.53;;
42701;Laerm;28316;49.504;8.526;2023-12-28T07:18:52;38.60;35.94;40.71;;
42701;Laerm;28316;49.504;8.526;2023-12-28T07:21:18;38.60;35.36;40.62;;
42701;Laerm;28316;49.504;8.526;2023-12-28T07:23:43;38.59;36.20;40.53;;
42701;Laerm;28316;49.504;8.526;2023-12-28T07:26:15;38.57;35.66;40.89;;
42701;Laerm;28316;49.504;8.526;2023-12-28T07:28:41;38.57;36.20;40.53;;
42701;Laerm;28316;49.504;8.526;2023-12-28T07:31:09;38.55;35.66;40.62;;
42701;Laerm;28316;49.504;8.526;2023-12-28T07:33:35;38.56;35.66;40.80;;
42701;Laerm;28316;49.504;8.526;2023-12-28T07:36:00;38.59;35.94;40.71;;
42701;Laerm;28316;49.504;8.526;2023-12-28T07:38:28;38.60;35.66;40.71;;
42701;Laerm;28316;49.504;8.526;2023-12-28T07:40:54;38.62;35.94;40.80;;
42701;Laerm;28316;49.504;8.526;2023-12-28T07:43:19;38.63;36.45;40.53;;
42701;Laerm;28316;49.504;8.526;2023-12-28T07:45:45;38.64;36.20;40.62;;
42701;Laerm;28316;49.504;8.526;2023-12-28T07:48:11;38.64;36.20;40.89;;
42701;Laerm;28316;49.504;8.526;2023-12-28T07:50:36;38.64;35.04;40.53;;
42701;Laerm;28316;49.504;8.526;2023-12-28T07:53:02;38.67;36.20;41.14;;
42701;Laerm;28316;49.504;8.526;2023-12-28T07:55:28;38.69;36.45;40.71;;
42701;Laerm;28316;49.504;8.526;2023-12-28T07:57:54;38.71;35.94;40.71;;
42701;Laerm;28316;49.504;8.526;2023-12-28T08:00:20;38.70;35.94;40.54;;
42701;Laerm;28316;49.504;8.526;2023-12-28T08:02:46;38.69;35.94;40.80;;
42701;Laerm;28316;49.504;8.526;2023-12-28T08:05:11;38.71;35.66;40.62;;
42701;Laerm;28316;49.504;8.526;2023-12-28T08:07:37;38.70;36.20;40.54;;
42701;Laerm;28316;49.504;8.526;2023-12-28T08:10:03;38.71;35.66;40.62;;
42701;Laerm;28316;49.504;8.526;2023-12-28T08:12:29;38.65;36.20;40.53;;
42701;Laerm;28316;49.504;8.526;2023-12-28T08:14:55;38.62;35.94;40.62;;
42701;Laerm;28316;49.504;8.526;2023-12-28T08:17:21;38.58;36.20;40.53;;
42701;Laerm;28316;49.504;8.526;2023-12-28T08:19:47;38.53;36.20;40.53;;
42701;Laerm;28316;49.504;8.526;2023-12-28T08:22:13;38.55;35.66;40.71;;
42701;Laerm;28316;49.504;8.526;2023-12-28T08:24:38;38.52;35.66;40.43;;
42701;Laerm;28316;49.504;8.526;2023-12-28T08:27:04;38.55;35.66;40.62;;
42701;Laerm;28316;49.504;8.526;2023-12-28T08:29:30;38.57;35.94;40.62;;
42701;Laerm;28316;49.504;8.526;2023-12-28T08:31:55;38.63;35.94;40.62;;
42701;Laerm;28316;49.504;8.526;2023-12-28T08:34:21;38.62;36.45;40.62;;
42701;Laerm;28316;49.504;8.526;2023-12-28T08:36:47;38.65;36.20;40.45;;
42701;Laerm;28316;49.504;8.526;2023-12-28T08:39:13;38.65;35.94;41.22;;
42701;Laerm;28316;49.504;8.526;2023-12-28T08:41:39;38.66;36.34;40.80;;
42701;Laerm;28316;49.504;8.526;2023-12-28T08:44:04;38.70;36.45;40.71;;
42701;Laerm;28316;49.504;8.526;2023-12-28T08:46:30;38.75;36.20;40.80;;
42701;Laerm;28316;49.504;8.526;2023-12-28T08:48:56;38.76;36.20;40.98;;
42701;Laerm;28316;49.504;8.526;2023-12-28T08:51:22;38.79;36.20;40.71;;
42701;Laerm;28316;49.504;8.526;2023-12-28T08:53:48;38.82;36.20;40.62;;
42701;Laerm;28316;49.504;8.526;2023-12-28T08:56:20;38.83;36.45;40.80;;
42701;Laerm;28316;49.504;8.526;2023-12-28T08:58:47;38.86;36.69;40.62;;
42701;Laerm;28316;49.504;8.526;2023-12-28T09:01:20;38.84;36.45;41.06;;
42701;Laerm;28316;49.504;8.526;2023-12-28T09:03:53;38.87;36.69;40.71;;
42701;Laerm;28316;49.504;8.526;2023-12-28T09:06:20;38.89;36.45;40.98;;
42701;Laerm;28316;49.504;8.526;2023-12-28T09:08:49;38.89;36.45;40.89;;
42701;Laerm;28316;49.504;8.526;2023-12-28T09:11:15;38.86;36.45;40.62;;
42701;Laerm;28316;49.504;8.526;2023-12-28T09:13:41;38.89;36.69;40.80;;
42701;Laerm;28316;49.504;8.526;2023-12-28T09:16:15;38.94;36.69;40.98;;
42701;Laerm;28316;49.504;8.526;2023-12-28T09:18:42;38.95;36.69;40.98;;
42701;Laerm;28316;49.504;8.526;2023-12-28T09:21:09;39.00;36.69;40.89;;
42701;Laerm;28316;49.504;8.526;2023-12-28T09:23:35;39.01;36.91;40.89;;
42701;Laerm;28316;49.504;8.526;2023-12-28T09:26:05;39.03;36.69;40.98;;
42701;Laerm;28316;49.504;8.526;2023-12-28T09:28:34;38.99;36.34;40.89;;
42701;Laerm;28316;49.504;8.526;2023-12-28T09:31:03;39.03;36.91;41.06;;
42701;Laerm;28316;49.504;8.526;2023-12-28T09:33:30;39.02;36.91;40.98;;
42701;Laerm;28316;49.504;8.526;2023-12-28T09:35:55;39.01;36.91;40.80;;
42701;Laerm;28316;49.504;8.526;2023-12-28T09:38:21;38.98;36.69;41.14;;
42701;Laerm;28316;49.504;8.526;2023-12-28T09:40:53;38.97;36.45;40.89;;
42701;Laerm;28316;49.504;8.526;2023-12-28T09:43:24;38.95;36.69;40.80;;
42701;Laerm;28316;49.504;8.526;2023-12-28T09:45:53;38.98;36.20;40.89;;
42701;Laerm;28316;49.504;8.526;2023-12-28T09:48:22;38.98;36.91;40.71;;
42701;Laerm;28316;49.504;8.526;2023-12-28T09:50:55;38.97;36.69;40.89;;
42701;Laerm;28316;49.504;8.526;2023-12-28T09:53:24;38.94;36.69;40.89;;
42701;Laerm;28316;49.504;8.526;2023-12-28T09:55:51;38.94;36.45;40.98;;
42701;Laerm;28316;49.504;8.526;2023-12-28T09:58:19;38.92;36.69;40.80;;
42701;Laerm;28316;49.504;8.526;2023-12-28T10:00:46;38.93;36.69;40.80;;
42701;Laerm;28316;49.504;8.526;2023-12-28T10:03:13;38.94;36.91;40.98;;
42701;Laerm;28316;49.504;8.526;2023-12-28T10:05:46;38.98;36.69;40.80;;
42701;Laerm;28316;49.504;8.526;2023-12-28T10:08:13;39.00;36.91;40.80;;
42701;Laerm;28316;49.504;8.526;2023-12-28T10:10:41;38.99;36.69;40.98;;
42701;Laerm;28316;49.504;8.526;2023-12-28T10:13:07;38.97;36.45;40.98;;
42701;Laerm;28316;49.504;8.526;2023-12-28T10:15:35;38.95;36.69;41.06;;
42701;Laerm;28316;49.504;8.526;2023-12-28T10:18:01;38.93;36.45;40.98;;
42701;Laerm;28316;49.504;8.526;2023-12-28T10:20:28;38.92;36.45;41.75;;
42701;Laerm;28316;49.504;8.526;2023-12-28T10:22:54;38.91;36.69;40.80;;
42701;Laerm;28316;49.504;8.526;2023-12-28T10:25:20;38.89;36.45;40.62;;
42701;Laerm;28316;49.504;8.526;2023-12-28T10:27:50;38.90;36.69;40.89;;
42701;Laerm;28316;49.504;8.526;2023-12-28T10:30:16;38.93;36.45;40.89;;
42701;Laerm;28316;49.504;8.526;2023-12-28T10:32:42;38.96;36.91;40.80;;
42701;Laerm;28316;49.504;8.526;2023-12-28T10:35:08;38.95;36.20;41.14;;
42701;Laerm;28316;49.504;8.526;2023-12-28T10:37:35;39.00;36.91;40.98;;
42701;Laerm;28316;49.504;8.526;2023-12-28T10:40:06;39.05;36.45;40.71;;
42701;Laerm;28316;49.504;8.526;2023-12-28T10:42:42;39.17;36.69;40.98;;
42701;Laerm;28316;49.504;8.526;2023-12-28T10:45:12;39.21;36.91;40.98;;
42701;Laerm;28316;49.504;8.526;2023-12-28T10:50:21;39.36;37.52;41.46;;
42701;Laerm;28316;49.504;8.526;2023-12-28T10:52:51;39.46;37.52;41.14;;
42701;Laerm;28316;49.504;8.526;2023-12-28T10:55:34;39.50;37.32;41.22;;
42701;Laerm;28316;49.504;8.526;2023-12-28T10:58:14;39.52;36.69;41.38;;
42701;Laerm;28316;49.504;8.526;2023-12-28T11:00:49;39.46;37.32;41.14;;
42701;Laerm;28316;49.504;8.526;2023-12-28T11:03:26;39.34;37.32;41.06;;
42701;Laerm;28316;49.504;8.526;2023-12-28T11:05:53;39.23;36.91;41.06;;
42701;Laerm;28316;49.504;8.526;2023-12-28T11:08:21;39.18;37.12;41.22;;
42701;Laerm;28316;49.504;8.526;2023-12-28T11:10:50;39.21;36.91;41.14;;
42701;Laerm;28316;49.504;8.526;2023-12-28T11:13:20;39.20;36.20;40.98;;
42701;Laerm;28316;49.504;8.526;2023-12-28T11:15:48;39.23;37.52;40.89;;
42701;Laerm;28316;49.504;8.526;2023-12-28T11:18:15;39.24;37.12;41.06;;
42701;Laerm;28316;49.504;8.526;2023-12-28T11:20:43;39.29;37.52;40.89;;
42701;Laerm;28316;49.504;8.526;2023-12-28T11:23:10;39.24;37.12;41.06;;
42701;Laerm;28316;49.504;8.526;2023-12-28T11:25:37;39.21;37.32;41.22;;
42701;Laerm;28316;49.504;8.526;2023-12-28T11:28:12;39.10;36.45;40.98;;
42701;Laerm;28316;49.504;8.526;2023-12-28T11:30:38;39.04;36.69;40.98;;
42701;Laerm;28316;49.504;8.526;2023-12-28T11:33:06;39.02;36.69;41.14;;
42701;Laerm;28316;49.504;8.526;2023-12-28T11:35:39;38.95;36.45;40.98;;
42701;Laerm;28316;49.504;8.526;2023-12-28T11:38:08;38.89;36.20;40.80;;
42701;Laerm;28316;49.504;8.526;2023-12-28T11:40:42;38.86;36.69;40.62;;
42701;Laerm;28316;49.504;8.526;2023-12-28T11:43:19;38.88;36.69;40.89;;
42701;Laerm;28316;49.504;8.526;2023-12-28T11:45:51;38.82;35.94;40.98;;
42701;Laerm;28316;49.504;8.526;2023-12-28T11:48:27;38.82;36.45;40.71;;
42701;Laerm;28316;49.504;8.526;2023-12-28T11:51:00;38.97;36.20;40.71;;
42701;Laerm;28316;49.504;8.526;2023-12-28T11:53:26;39.02;36.20;40.80;;
42701;Laerm;28316;49.504;8.526;2023-12-28T11:55:59;38.93;36.69;40.98;;
42701;Laerm;28316;49.504;8.526;2023-12-28T11:58:29;38.92;35.94;40.80;;
42701;Laerm;28316;49.504;8.526;2023-12-28T12:00:54;38.94;36.91;40.71;;
42701;Laerm;28316;49.504;8.526;2023-12-28T12:03:20;39.00;36.69;40.63;;
42701;Laerm;28316;49.504;8.526;2023-12-28T12:05:46;39.00;36.69;41.06;;
42701;Laerm;28316;49.504;8.526;2023-12-28T12:08:11;38.97;36.45;41.06;;
42701;Laerm;28316;49.504;8.526;2023-12-28T12:10:42;38.90;36.20;40.89;;
42701;Laerm;28316;49.504;8.526;2023-12-28T12:13:08;38.82;36.20;40.71;;
42701;Laerm;28316;49.504;8.526;2023-12-28T12:15:34;38.65;36.45;40.71;;
42701;Laerm;28316;49.504;8.526;2023-12-28T12:18:01;38.31;35.01;40.33;;
42701;Laerm;28316;49.504;8.526;2023-12-28T12:20:28;37.95;34.69;40.33;;
42701;Laerm;28316;49.504;8.526;2023-12-28T12:22:58;37.50;34.31;40.43;;
42701;Laerm;28316;49.504;8.526;2023-12-28T12:25:25;37.15;32.93;57.59;;
42701;Laerm;28316;49.504;8.526;2023-12-28T12:27:50;36.77;32.35;39.58;;
42701;Laerm;28316;49.504;8.526;2023-12-28T12:30:16;36.63;29.92;41.68;;
42701;Laerm;28316;49.504;8.526;2023-12-28T12:32:42;36.53;30.89;39.35;;
42701;Laerm;28316;49.504;8.526;2023-12-28T12:35:12;36.51;30.89;46.30;;
42701;Laerm;28316;49.504;8.526;2023-12-28T12:37:40;36.42;29.92;39.34;;
42701;Laerm;28316;49.504;8.526;2023-12-28T12:40:06;36.40;30.89;39.70;;
42701;Laerm;28316;49.504;8.526;2023-12-28T12:42:33;36.43;30.89;40.89;;
42701;Laerm;28316;49.504;8.526;2023-12-28T12:44:59;36.38;29.92;39.46;;
42701;Laerm;28316;49.504;8.526;2023-12-28T12:47:25;36.35;23.90;39.34;;
42701;Laerm;28316;49.504;8.526;2023-12-28T12:49:55;36.34;28.67;39.70;;
42701;Laerm;28316;49.504;8.526;2023-12-28T12:52:21;36.33;26.91;39.70;;
42701;Laerm;28316;49.504;8.526;2023-12-28T12:54:58;36.27;28.67;39.58;;
42701;Laerm;28316;49.504;8.526;2023-12-28T12:57:27;36.29;28.32;39.70;;
42701;Laerm;28316;49.504;8.526;2023-12-28T12:59:53;36.20;26.56;39.46;;
42701;Laerm;28316;49.504;8.526;2023-12-28T13:02:23;36.16;28.67;39.70;;
42701;Laerm;28316;49.504;8.526;2023-12-28T13:04:52;36.08;28.67;39.46;;
42701;Laerm;28316;49.504;8.526;2023-12-28T13:07:19;36.08;29.92;40.62;;
42701;Laerm;28316;49.504;8.526;2023-12-28T13:09:45;36.07;29.92;38.95;;
42701;Laerm;28316;49.504;8.526;2023-12-28T13:12:10;36.06;23.90;39.08;;
42701;Laerm;28316;49.504;8.526;2023-12-28T13:14:36;36.04;28.67;39.34;;
42701;Laerm;28316;49.504;8.526;2023-12-28T13:17:02;38.39;23.90;70.83;;
42701;Laerm;28316;49.504;8.526;2023-12-28T13:19:28;36.04;26.91;39.58;;
42701;Laerm;28316;49.504;8.526;2023-12-28T13:21:54;36.03;26.91;40.03;;
42701;Laerm;28316;49.504;8.526;2023-12-28T13:24:20;35.99;26.91;39.34;;
42701;Laerm;28316;49.504;8.526;2023-12-28T13:26:45;35.99;23.90;38.95;;
42701;Laerm;28316;49.504;8.526;2023-12-28T13:29:11;36.03;26.91;39.08;;
42701;Laerm;28316;49.504;8.526;2023-12-28T13:31:37;36.22;28.67;39.21;;
42701;Laerm;28316;49.504;8.526;2023-12-28T13:34:03;36.20;26.91;39.21;;
42701;Laerm;28316;49.504;8.526;2023-12-28T13:36:29;36.18;28.67;39.70;;
42701;Laerm;28316;49.504;8.526;2023-12-28T13:38:55;36.20;28.67;39.34;;
42701;Laerm;28316;49.504;8.526;2023-12-28T13:41:20;36.21;26.91;39.34;;
42701;Laerm;28316;49.504;8.526;2023-12-28T13:43:46;36.23;26.91;39.58;;
42701;Laerm;28316;49.504;8.526;2023-12-28T13:46:12;36.22;23.90;38.95;;